Terminal Aerodrome Forecast
Issued by NWS

Home | Current Version | Previous Version | Text Only | Print | Product List | Glossary On
Versions: 1 2 3 4 5 6 7 8 9 10 11 12 13
200
FTUS45 KRIW 181120
TAFCPR
TAF
KCPR 181120Z 1812/1912 22022G32KT P6SM SKC
     FM181500 22028G38KT P6SM SKC
     FM190000 22020G30KT P6SM SKC=

USA.gov is the U.S. government's official web portal to all federal, state and local government web resources and services.